Detall de PIREP

Printer-friendly versionPDF version

[2015/05/10 05:40:00]
Flight IATA:CT2101
Pilot Number:041
Company ICAO:CAT
Aircraft Type:BE20/A
PAX:4
Departing Airport: LEAS
Destination Airport: LEVC
Alternate Airport:LEMD
Online: VATSIM
Route:XONDA R107 ZMR UL155 NVS UM871 ABOSI
Flight Level:FL160
No Slew and time accel
No pause
Crash detect
Detect pilot in Cockpit between each 30 and 45 minutes
05:40 Zero fuel Weight: 8737 Lbs, Fuel Weight: 3677 Lbs
05:40 VATSIM:LEAS 100500Z VRB01KT 6000 FEW084 12/12 Q1021 NOSIG
05:40 VATSIM:LEVC 100500Z VRB01KT CAVOK 17/11 Q1024 NOSIG
05:40 VOICE CATALONIAN
05:46 Parking Brakes off
05:51 Take-off
05:51 Take off Weight: 12375 Lbs
05:51 Wind: 097º @ 001 Knots Heading: 106º
05:51 POS N43º 33´ 47´´ W006º 01´ 56´´
05:51 Flaps:1 at 131 Knots
05:51 Gear Up: 134 Knots
05:52 Flaps:0 at 133 Knots
06:06 Wind:276º@038 Knots Heading: 181º Ground Speed: 248 Knots Altitude 15285 ft
06:21 Wind:277º@033 Knots Heading: 179º Ground Speed: 254 Knots Altitude 15308 ft
06:34 TOC
06:34 Fuel Weight: 3108 Lb
06:36 Wind:285º@021 Knots Heading: 135º Ground Speed: 261 Knots Altitude 16318 ft
06:51 Wind:312º@013 Knots Heading: 097º Ground Speed: 263 Knots Altitude 16312 ft
07:06 Wind:311º@014 Knots Heading: 105º Ground Speed: 268 Knots Altitude 16315 ft
07:12 TOD
07:12 Fuel Weight: 2681 Lb
07:21 Wind:275º@013 Knots Heading: 114º Ground Speed: 213 Knots Altitude 6315 ft
07:28 Flaps:1 at 210 Knots
07:29 Gear Down: 174 Knots
07:29 Flaps:2 at 149 Knots
07:30 TouchDown:Rate -65 ft/min Speed: 113 Knots
07:30 Flaps:1 at 99 Knots
07:30 Flaps:0 at 84 Knots
07:30 VATSIM:LEVC 100700Z 05004KT 320V090 9999 FEW005 19/17 Q1025 NOSIG
07:31 Land
07:31 Wind:310º@002 Knots
07:31 Heading: 115º
07:31 Flight Duration: 01:40
07:31 Landing Weight: 11312 Lbs
07:31 POS N39º29´ 29´´ W000º 29´ 16´´
07:33 Parking brakes on
07:33 Block to Block Duration: 01:47
07:33 Final Fuel: 2568 Lbls
07:33 Spent Fuel: 1108 Lbls
07:33 Flight Length: 402 NM
07:33 TOD Land Length: 67 NM

Exportar CSV

Powered by Drupal - Modified by Danger4k